createdAt,value
2018-05-25T00:01:33.021Z,92.84
2018-05-25T00:04:01.288Z,92.97
2018-05-25T00:06:31.558Z,93.20
2018-05-25T00:08:59.924Z,92.98
2018-05-25T00:11:28.190Z,92.91
2018-05-25T00:13:57.216Z,92.08
2018-05-25T00:16:25.487Z,90.81
2018-05-25T00:18:53.755Z,91.85
2018-05-25T00:21:22.021Z,92.76
2018-05-25T00:23:51.041Z,93.05
2018-05-25T00:26:19.311Z,93.19
2018-05-25T00:28:48.336Z,93.15
2018-05-25T00:31:16.610Z,93.05
2018-05-25T00:33:44.872Z,93.06
2018-05-25T00:36:13.893Z,93.31
2018-05-25T00:38:42.138Z,93.07
2018-05-25T00:41:11.169Z,93.30
2018-05-25T00:43:39.421Z,93.21
2018-05-25T00:46:08.444Z,93.35
2018-05-25T00:48:36.690Z,93.31
2018-05-25T00:51:05.714Z,93.29
2018-05-25T00:53:33.953Z,93.56
2018-05-25T00:56:02.989Z,93.40
2018-05-25T00:58:31.237Z,93.12
2018-05-25T01:01:00.252Z,92.23
2018-05-25T01:03:29.272Z,92.93
2018-05-25T01:05:57.524Z,92.86
2018-05-25T01:08:26.554Z,92.87
2018-05-25T01:10:54.818Z,92.94
2018-05-25T01:13:23.063Z,93.16
2018-05-25T01:15:52.833Z,93.13
2018-05-25T01:18:21.079Z,93.53
2018-05-25T01:20:50.104Z,93.85
2018-05-25T01:23:18.338Z,93.97
2018-05-25T01:25:47.363Z,93.87
2018-05-25T01:28:15.615Z,93.55
2018-05-25T01:30:44.634Z,93.51
2018-05-25T01:33:14.573Z,93.68
2018-05-25T01:35:42.835Z,93.60
2018-05-25T01:38:11.848Z,93.11
2018-05-25T01:40:40.096Z,93.86
2018-05-25T01:43:09.117Z,93.82
2018-05-25T01:45:37.366Z,94.08
2018-05-25T01:48:06.395Z,93.66
2018-05-25T01:50:34.644Z,93.29
2018-05-25T01:53:03.667Z,93.59
2018-05-25T01:55:32.773Z,93.89
2018-05-25T01:58:01.795Z,93.52
2018-05-25T02:00:30.037Z,93.80
2018-05-25T02:02:59.044Z,92.03
2018-05-25T02:05:27.307Z,92.53
2018-05-25T02:07:56.328Z,93.27
2018-05-25T02:10:24.597Z,93.69
2018-05-25T02:12:53.598Z,93.88
2018-05-25T02:15:21.860Z,93.61
2018-05-25T02:17:50.879Z,94.07
2018-05-25T02:20:19.134Z,93.77
2018-05-25T02:22:48.174Z,91.82
2018-05-25T02:28:16.239Z,93.31
2018-05-25T02:30:44.522Z,92.92
2018-05-25T02:33:12.779Z,93.45
2018-05-25T02:35:41.795Z,93.59
2018-05-25T02:38:10.816Z,93.64
2018-05-25T02:40:39.064Z,93.80
2018-05-25T02:43:08.084Z,93.81
2018-05-25T02:45:36.327Z,93.79
2018-05-25T02:48:05.352Z,93.88
2018-05-25T02:50:33.597Z,93.78
2018-05-25T02:53:03.351Z,93.53
2018-05-25T02:55:31.611Z,94.35
2018-05-25T02:58:00.633Z,94.25
2018-05-25T03:00:29.013Z,94.19
2018-05-25T03:02:58.118Z,94.45
2018-05-25T03:05:26.386Z,93.76
2018-05-25T03:07:55.394Z,93.94
2018-05-25T03:10:23.635Z,93.97
2018-05-25T03:12:52.672Z,94.09
2018-05-25T03:15:20.918Z,93.35
2018-05-25T03:17:50.683Z,93.78
2018-05-25T03:20:18.921Z,94.14
2018-05-25T03:22:47.946Z,94.37
2018-05-25T03:25:16.186Z,94.50
2018-05-25T03:27:45.222Z,94.10
2018-05-25T03:30:13.471Z,94.18
2018-05-25T03:32:42.504Z,94.62
2018-05-25T03:35:10.754Z,93.85
2018-05-25T03:37:39.891Z,94.17
2018-05-25T03:40:08.131Z,94.25
2018-05-25T03:42:37.157Z,93.80
2018-05-25T03:45:05.399Z,93.74
2018-05-25T03:47:35.162Z,93.79
2018-05-25T03:50:03.407Z,94.13
2018-05-25T03:52:32.423Z,93.62
2018-05-25T03:55:00.690Z,93.39
2018-05-25T03:57:29.711Z,92.33
2018-05-25T04:00:15.964Z,91.91
2018-05-25T04:02:46.220Z,92.41
2018-05-25T04:05:14.470Z,92.63
2018-05-25T04:07:44.342Z,92.45
2018-05-25T04:10:12.605Z,92.10
2018-05-25T04:12:40.849Z,92.08
2018-05-25T04:15:09.873Z,92.37
2018-05-25T04:17:38.965Z,92.18
2018-05-25T04:20:07.990Z,92.19
2018-05-25T04:22:36.234Z,91.12
2018-05-25T04:25:05.259Z,91.29
2018-05-25T04:27:33.510Z,90.96
2018-05-25T04:30:02.522Z,90.09
2018-05-25T04:32:31.563Z,89.72
2018-05-25T04:34:59.823Z,89.88
2018-05-25T04:37:28.078Z,89.99
2018-05-25T04:39:57.103Z,90.11
2018-05-25T04:42:25.349Z,89.90
2018-05-25T04:44:54.383Z,89.96
2018-05-25T04:47:22.635Z,89.66
2018-05-25T04:49:51.659Z,88.65
2018-05-25T04:52:19.922Z,82.23
2018-05-25T04:54:48.957Z,62.44
2018-05-25T04:57:17.300Z,51.15
2018-05-25T04:59:45.579Z,43.58
2018-05-25T05:02:14.591Z,39.53
2018-05-25T05:04:42.860Z,36.54
2018-05-25T05:07:11.158Z,34.74
2018-05-25T05:09:39.435Z,33.16
2018-05-25T05:12:07.682Z,31.14
2018-05-25T05:14:36.727Z,30.17
2018-05-25T05:17:04.995Z,29.79
2018-05-25T05:19:33.257Z,33.77
2018-05-25T05:22:01.521Z,33.90
2018-05-25T05:24:30.551Z,33.21
2018-05-25T05:26:58.809Z,35.33
2018-05-25T05:29:27.843Z,35.54
2018-05-25T05:31:56.092Z,36.99
2018-05-25T05:34:25.131Z,36.83
2018-05-25T05:36:53.388Z,36.22
2018-05-25T05:39:21.638Z,32.44
2018-05-25T05:41:50.968Z,31.46
2018-05-25T05:44:19.222Z,31.97
2018-05-25T05:46:48.251Z,33.01
2018-05-25T05:49:16.532Z,35.35
2018-05-25T05:51:44.786Z,33.15
2018-05-25T05:54:13.823Z,29.21
2018-05-25T05:56:42.078Z,29.02
2018-05-25T05:59:10.714Z,29.36
2018-05-25T06:01:38.979Z,26.87
2018-05-25T06:04:07.237Z,25.51
2018-05-25T06:06:35.506Z,25.02
2018-05-25T06:09:06.059Z,28.69
2018-05-25T06:11:34.544Z,29.06
2018-05-25T06:14:02.809Z,28.97
2018-05-25T06:16:31.075Z,28.17
2018-05-25T06:19:00.099Z,25.79
2018-05-25T06:21:28.366Z,25.96
2018-05-25T06:23:56.633Z,26.59
2018-05-25T06:26:25.669Z,27.21
2018-05-25T06:28:53.928Z,27.75
2018-05-25T06:31:22.200Z,29.91
2018-05-25T06:33:51.223Z,29.08
2018-05-25T06:36:19.485Z,31.48
2018-05-25T06:38:47.742Z,28.83
2018-05-25T06:41:16.782Z,29.22
2018-05-25T06:43:45.044Z,28.96
2018-05-25T06:46:13.301Z,27.31
2018-05-25T06:48:42.423Z,26.37
2018-05-25T06:51:10.698Z,26.22
2018-05-25T06:53:38.960Z,28.04
2018-05-25T06:56:07.994Z,30.85
2018-05-25T06:58:36.251Z,29.89
2018-05-25T07:01:05.287Z,26.97
2018-05-25T07:03:33.536Z,26.70
2018-05-25T07:06:01.807Z,28.90
2018-05-25T07:08:30.840Z,25.68
2018-05-25T07:10:59.122Z,27.37
2018-05-25T07:13:27.393Z,26.11
2018-05-25T07:15:55.654Z,26.64
2018-05-25T07:18:23.910Z,26.57
2018-05-25T07:20:53.688Z,25.46
2018-05-25T07:23:21.939Z,23.72
2018-05-25T07:25:52.118Z,23.79
2018-05-25T07:28:20.336Z,23.55
2018-05-25T07:30:48.614Z,21.79
2018-05-25T07:33:17.991Z,27.33
2018-05-25T07:35:46.223Z,26.24
2018-05-25T07:38:14.484Z,22.31
2018-05-25T07:40:43.512Z,24.99
2018-05-25T07:43:11.864Z,23.90
2018-05-25T07:45:40.120Z,23.91
2018-05-25T07:48:09.156Z,27.80
2018-05-25T07:50:37.411Z,27.98
2018-05-25T07:53:06.443Z,25.92
2018-05-25T07:55:34.698Z,21.76
2018-05-25T07:58:03.606Z,22.54
2018-05-25T08:00:31.866Z,24.59
2018-05-25T08:03:00.899Z,24.27
2018-05-25T08:05:29.154Z,24.07
2018-05-25T08:07:57.427Z,23.51
2018-05-25T08:10:26.456Z,21.46
2018-05-25T08:12:54.729Z,20.11
2018-05-25T08:15:22.983Z,23.83
2018-05-25T08:17:52.015Z,24.17
2018-05-25T08:20:20.262Z,23.71
2018-05-25T08:22:49.291Z,20.76
2018-05-25T08:25:17.548Z,23.04
2018-05-25T08:27:46.601Z,21.24
2018-05-25T08:30:15.987Z,21.67
2018-05-25T08:32:44.250Z,23.54
2018-05-25T08:35:12.503Z,21.73
2018-05-25T08:37:42.018Z,20.09
2018-05-25T08:40:11.048Z,24.86
2018-05-25T08:42:39.367Z,25.81
2018-05-25T08:45:09.128Z,18.25
2018-05-25T08:47:37.394Z,23.04
2018-05-25T08:50:06.419Z,20.72
2018-05-25T08:52:34.687Z,23.71
2018-05-25T08:55:03.007Z,23.58
2018-05-25T08:57:31.227Z,24.87
2018-05-25T09:00:00.269Z,25.51
2018-05-25T09:02:28.519Z,23.84
2018-05-25T09:04:56.806Z,24.86
2018-05-25T09:07:25.077Z,24.69
2018-05-25T09:09:54.167Z,24.17
2018-05-25T09:12:23.246Z,22.83
2018-05-25T09:14:51.475Z,24.23
2018-05-25T09:17:19.739Z,22.51
2018-05-25T09:19:48.575Z,22.31
2018-05-25T09:22:17.565Z,24.20
2018-05-25T09:24:45.831Z,21.85
2018-05-25T09:27:14.087Z,23.84
2018-05-25T09:29:42.356Z,25.30
2018-05-25T09:32:11.375Z,22.51
2018-05-25T09:34:39.651Z,21.27
2018-05-25T09:37:07.904Z,25.90
2018-05-25T09:39:36.935Z,21.08
2018-05-25T09:42:05.196Z,22.85
2018-05-25T09:44:34.263Z,22.68
2018-05-25T09:47:03.280Z,23.33
2018-05-25T09:49:32.327Z,22.75
2018-05-25T09:52:00.583Z,22.06
2018-05-25T09:54:28.834Z,24.28
2018-05-25T09:57:00.712Z,26.49
2018-05-25T09:59:29.736Z,25.43
2018-05-25T10:01:58.019Z,25.89
2018-05-25T10:04:26.282Z,23.99
2018-05-25T10:06:54.558Z,20.49
2018-05-25T10:09:23.664Z,22.21
2018-05-25T10:11:52.761Z,23.78
2018-05-25T10:14:21.786Z,21.04
2018-05-25T10:16:50.038Z,20.34
2018-05-25T10:19:18.302Z,17.74
2018-05-25T10:21:47.419Z,19.92
2018-05-25T10:24:15.690Z,22.88
2018-05-25T10:26:44.722Z,22.44
2018-05-25T10:29:12.979Z,21.06
2018-05-25T10:31:42.010Z,23.07
2018-05-25T10:34:10.279Z,19.41
2018-05-25T10:36:38.538Z,20.99
2018-05-25T10:39:07.574Z,22.51
2018-05-25T10:41:35.825Z,24.01
2018-05-25T10:44:04.094Z,23.38
2018-05-25T10:46:32.374Z,25.82
2018-05-25T10:49:01.415Z,30.34
2018-05-25T10:51:30.286Z,30.63
2018-05-25T10:53:58.563Z,29.59
2018-05-25T10:56:26.818Z,25.69
2018-05-25T10:58:55.847Z,30.37
2018-05-25T11:01:24.104Z,36.63
2018-05-25T11:03:53.130Z,35.67
2018-05-25T11:06:21.384Z,35.53
2018-05-25T11:08:50.492Z,31.89
2018-05-25T11:11:18.747Z,35.31
2018-05-25T11:13:47.788Z,34.67
2018-05-25T11:16:16.048Z,32.64
2018-05-25T11:18:44.319Z,26.90
2018-05-25T11:21:13.423Z,29.24
2018-05-25T11:23:42.115Z,26.89
2018-05-25T11:26:10.389Z,32.06
2018-05-25T11:28:39.403Z,35.43
2018-05-25T11:31:07.671Z,29.52
2018-05-25T11:33:36.776Z,31.37
2018-05-25T11:36:05.032Z,27.33
2018-05-25T11:38:34.358Z,26.63
2018-05-25T11:41:02.640Z,25.90
2018-05-25T11:43:30.924Z,27.36
2018-05-25T11:45:59.184Z,30.17
2018-05-25T11:48:28.218Z,30.79
2018-05-25T11:50:56.476Z,35.02
2018-05-25T11:53:25.492Z,35.19
2018-05-25T11:55:53.779Z,31.56
2018-05-25T11:58:22.042Z,31.52
2018-05-25T12:00:51.063Z,31.59
2018-05-25T12:03:19.319Z,29.27
2018-05-25T12:05:47.587Z,27.03
2018-05-25T12:08:16.618Z,30.47
2018-05-25T12:10:44.885Z,29.32
2018-05-25T12:13:13.149Z,36.37
2018-05-25T12:15:42.259Z,36.21
2018-05-25T12:18:10.511Z,37.96
2018-05-25T12:20:39.543Z,39.29
2018-05-25T12:23:07.799Z,36.69
2018-05-25T12:25:36.839Z,37.31
2018-05-25T12:28:05.317Z,38.36
2018-05-25T12:30:34.324Z,36.93
2018-05-25T12:33:02.571Z,36.64
2018-05-25T12:35:31.598Z,32.79
2018-05-25T12:37:59.870Z,34.41
2018-05-25T12:40:28.167Z,34.95
2018-05-25T12:42:57.231Z,33.10
2018-05-25T12:45:25.514Z,30.59
2018-05-25T12:47:53.766Z,33.54
2018-05-25T12:50:22.809Z,34.10
2018-05-25T12:52:51.067Z,34.59
2018-05-25T12:55:20.106Z,35.57
2018-05-25T12:57:48.377Z,33.89
2018-05-25T13:00:18.109Z,32.00
2018-05-25T13:02:46.377Z,33.98
2018-05-25T13:05:14.635Z,33.08
2018-05-25T13:07:42.891Z,33.35
2018-05-25T13:10:11.932Z,34.44
2018-05-25T13:12:40.285Z,34.19
2018-05-25T13:15:08.539Z,33.60
2018-05-25T13:17:37.563Z,33.48
2018-05-25T13:20:05.829Z,35.10
2018-05-25T13:22:34.862Z,34.23
2018-05-25T13:25:03.133Z,34.89
2018-05-25T13:27:31.395Z,35.58
2018-05-25T13:30:00.419Z,33.74
2018-05-25T13:32:30.138Z,36.50
2018-05-25T13:34:58.404Z,35.26
2018-05-25T13:37:26.675Z,35.96
2018-05-25T13:39:55.774Z,34.76
2018-05-25T13:42:24.035Z,36.71
2018-05-25T13:44:53.067Z,35.71
2018-05-25T13:47:21.335Z,36.90
2018-05-25T13:49:50.355Z,36.26
2018-05-25T13:52:18.615Z,35.99
2018-05-25T13:54:46.876Z,38.89
2018-05-25T13:57:15.910Z,38.41
2018-05-25T13:59:44.171Z,36.62
2018-05-25T14:02:12.446Z,36.11
2018-05-25T14:04:41.474Z,38.75
2018-05-25T14:07:09.732Z,38.28
2018-05-25T14:09:37.982Z,36.50
2018-05-25T14:12:06.251Z,39.13
2018-05-25T14:14:35.283Z,40.03
2018-05-25T14:17:04.311Z,41.52
2018-05-25T14:19:32.565Z,40.13
2018-05-25T14:22:01.613Z,36.87
2018-05-25T14:24:29.873Z,36.81
2018-05-25T14:26:58.237Z,40.81
2018-05-25T14:29:26.483Z,40.98
2018-05-25T14:31:56.247Z,40.15
2018-05-25T14:34:24.526Z,41.56
2018-05-25T14:36:53.854Z,39.34
2018-05-25T14:39:22.194Z,40.92
2018-05-25T14:41:50.443Z,42.85
2018-05-25T14:44:20.209Z,42.47
2018-05-25T14:46:48.468Z,41.38
2018-05-25T14:49:17.159Z,42.28
2018-05-25T14:51:45.416Z,43.20
2018-05-25T14:54:14.430Z,42.41
2018-05-25T14:56:43.470Z,42.48
2018-05-25T14:59:11.725Z,43.00
2018-05-25T15:01:40.130Z,40.97
2018-05-25T15:04:08.389Z,42.47
2018-05-25T15:06:36.695Z,45.40
2018-05-25T15:09:06.466Z,44.50
2018-05-25T15:11:34.728Z,44.95
2018-05-25T15:14:03.760Z,45.77
2018-05-25T15:16:32.007Z,43.65
2018-05-25T15:19:01.131Z,40.76
2018-05-25T15:21:29.399Z,42.98
2018-05-25T15:23:58.424Z,41.76
2018-05-25T15:26:26.675Z,40.69
2018-05-25T15:28:55.750Z,38.47
2018-05-25T15:31:23.963Z,37.99
2018-05-25T15:33:53.067Z,36.09
2018-05-25T15:36:21.321Z,37.68
2018-05-25T15:38:51.167Z,38.08
2018-05-25T15:41:19.475Z,38.68
2018-05-25T15:43:47.822Z,38.90
2018-05-25T15:46:16.853Z,41.78
2018-05-25T15:48:45.105Z,41.48
2018-05-25T15:51:14.119Z,44.86
2018-05-25T15:53:42.378Z,43.97
2018-05-25T15:56:11.398Z,45.09
2018-05-25T15:58:39.668Z,46.39
2018-05-25T16:01:07.931Z,46.02
2018-05-25T16:03:37.062Z,46.45
2018-05-25T16:06:05.322Z,46.78
2018-05-25T16:08:33.613Z,48.86
2018-05-25T16:11:01.859Z,49.70
2018-05-25T16:13:31.369Z,51.04
2018-05-25T16:15:59.630Z,52.21
2018-05-25T16:18:28.671Z,54.11
2018-05-25T16:20:57.692Z,52.67
2018-05-25T16:23:25.959Z,54.13
2018-05-25T16:25:54.224Z,52.29
2018-05-25T16:28:23.266Z,53.66
2018-05-25T16:30:51.569Z,53.61
2018-05-25T16:33:19.778Z,54.12
2018-05-25T16:35:48.800Z,54.28
2018-05-25T16:38:17.077Z,54.74
2018-05-25T16:40:45.322Z,55.90
2018-05-25T16:43:13.572Z,56.81
2018-05-25T16:45:43.080Z,57.94
2018-05-25T16:48:11.364Z,57.53
2018-05-25T16:50:39.611Z,57.15
2018-05-25T16:53:07.880Z,57.59
2018-05-25T16:55:36.774Z,57.80
2018-05-25T16:58:05.028Z,57.80
2018-05-25T17:00:34.064Z,57.12
2018-05-25T17:03:02.327Z,57.83
2018-05-25T17:05:31.346Z,58.50
2018-05-25T17:08:00.453Z,58.45
2018-05-25T17:10:28.704Z,58.59
2018-05-25T17:12:57.769Z,59.09
2018-05-25T17:15:25.996Z,60.01
2018-05-25T17:17:55.025Z,59.70
2018-05-25T17:20:23.278Z,59.65
2018-05-25T17:22:51.554Z,59.95
2018-05-25T17:25:19.823Z,60.97
2018-05-25T17:27:49.240Z,60.01
2018-05-25T17:30:17.511Z,60.41
2018-05-25T17:32:45.771Z,59.43
2018-05-25T17:35:14.799Z,59.39
2018-05-25T17:37:43.047Z,58.88
2018-05-25T17:40:11.313Z,58.60
2018-05-25T17:42:39.572Z,58.92
2018-05-25T17:45:07.839Z,58.99
2018-05-25T17:47:36.095Z,58.80
2018-05-25T17:50:04.370Z,59.19
2018-05-25T17:52:32.654Z,59.43
2018-05-25T17:55:00.918Z,59.04
2018-05-25T17:57:29.958Z,57.30
2018-05-25T17:59:58.229Z,57.68
2018-05-25T18:02:26.492Z,58.09
2018-05-25T18:04:55.529Z,58.31
2018-05-25T18:07:23.787Z,58.15
2018-05-25T18:09:52.579Z,58.08
2018-05-25T18:12:21.152Z,58.99
2018-05-25T18:14:50.171Z,58.87
2018-05-25T18:17:18.456Z,58.90
2018-05-25T18:19:46.711Z,60.50
2018-05-25T18:22:14.982Z,60.51
2018-05-25T18:24:44.090Z,60.56
2018-05-25T18:27:12.362Z,59.73
2018-05-25T18:29:41.425Z,59.58
2018-05-25T18:32:09.675Z,60.03
2018-05-25T18:34:37.947Z,60.54
2018-05-25T18:37:06.199Z,60.81
2018-05-25T18:39:35.233Z,63.83
2018-05-25T18:42:04.838Z,61.72
2018-05-25T18:44:33.104Z,63.25
2018-05-25T18:47:01.372Z,63.50
2018-05-25T18:49:30.402Z,61.82
2018-05-25T18:51:58.671Z,60.55
2018-05-25T18:54:33.810Z,59.74
2018-05-25T18:57:02.079Z,59.53
2018-05-25T18:59:30.354Z,58.85
2018-05-25T19:01:59.369Z,58.87
2018-05-25T19:04:27.634Z,58.45
2018-05-25T19:06:55.926Z,60.83
2018-05-25T19:09:24.202Z,63.28
2018-05-25T19:11:52.482Z,64.49
2018-05-25T19:14:20.738Z,65.38
2018-05-25T19:16:51.108Z,65.94
2018-05-25T19:19:19.370Z,65.09
2018-05-25T19:21:47.640Z,65.14
2018-05-25T19:24:16.655Z,62.46
2018-05-25T19:26:44.991Z,62.29
2018-05-25T19:29:13.203Z,60.77
2018-05-25T19:31:42.229Z,61.02
2018-05-25T19:34:10.486Z,64.35
2018-05-25T19:36:38.804Z,66.62
2018-05-25T19:39:07.061Z,67.17
2018-05-25T19:41:35.331Z,66.43
2018-05-25T19:44:03.782Z,67.41
2018-05-25T19:46:32.007Z,68.17
2018-05-25T19:49:00.260Z,69.41
2018-05-25T19:51:29.309Z,69.83
2018-05-25T19:53:57.565Z,69.39
2018-05-25T19:56:25.832Z,69.66
2018-05-25T19:58:54.090Z,71.05
2018-05-25T20:01:23.124Z,72.60
2018-05-25T20:03:51.377Z,73.88
2018-05-25T20:06:20.409Z,73.86
2018-05-25T20:08:48.664Z,75.33
2018-05-25T20:11:17.687Z,73.64
2018-05-25T20:13:45.951Z,73.90
2018-05-25T20:16:14.250Z,75.06
2018-05-25T20:18:43.239Z,75.33
2018-05-25T20:21:11.505Z,76.13
2018-05-25T20:23:39.759Z,76.71
2018-05-25T20:26:08.791Z,79.23
2018-05-25T20:28:37.038Z,79.47
2018-05-25T20:31:06.970Z,78.12
2018-05-25T20:33:36.080Z,78.37
2018-05-25T20:36:04.349Z,80.62
2018-05-25T20:38:33.454Z,79.74
2018-05-25T20:41:02.493Z,79.48
2018-05-25T20:43:30.748Z,80.28
2018-05-25T20:45:59.013Z,83.38
2018-05-25T20:48:28.144Z,83.99
2018-05-25T20:50:56.417Z,83.70
2018-05-25T20:53:26.327Z,84.12
2018-05-25T20:55:54.590Z,85.10
2018-05-25T20:58:23.699Z,84.98
2018-05-25T21:00:51.979Z,85.26
2018-05-25T21:03:20.996Z,85.00
2018-05-25T21:05:49.285Z,84.95
2018-05-25T21:08:17.526Z,85.60
2018-05-25T21:10:46.555Z,85.73
2018-05-25T21:13:14.816Z,86.17
2018-05-25T21:15:43.094Z,86.45
2018-05-25T21:18:12.118Z,85.87
2018-05-25T21:20:40.385Z,86.34
2018-05-25T21:23:08.638Z,86.27
2018-05-25T21:25:37.670Z,86.51
2018-05-25T21:28:05.926Z,86.68
2018-05-25T21:30:34.964Z,87.52
2018-05-25T21:33:03.210Z,87.64
2018-05-25T21:35:32.307Z,87.85
2018-05-25T21:38:01.348Z,87.83
2018-05-25T21:40:29.612Z,88.37
2018-05-25T21:42:57.868Z,88.09
2018-05-25T21:45:26.636Z,88.69
2018-05-25T21:47:56.521Z,88.29
2018-05-25T21:50:24.785Z,88.07
2018-05-25T21:52:53.064Z,88.56
2018-05-25T21:55:21.314Z,88.05
2018-05-25T21:57:50.350Z,87.88
2018-05-25T22:00:18.612Z,88.72
2018-05-25T22:02:47.042Z,88.54
2018-05-25T22:05:16.809Z,88.92
2018-05-25T22:07:45.075Z,89.28
2018-05-25T22:10:14.118Z,89.88
2018-05-25T22:12:42.375Z,89.19
2018-05-25T22:15:10.630Z,89.37
2018-05-25T22:17:39.661Z,89.51
2018-05-25T22:20:07.914Z,90.21
2018-05-25T22:22:36.191Z,90.47
2018-05-25T22:25:05.205Z,90.96
2018-05-25T22:27:33.472Z,90.25
2018-05-25T22:30:02.489Z,88.46
2018-05-25T22:32:30.762Z,88.77
2018-05-25T22:34:59.024Z,89.93
2018-05-25T22:37:28.051Z,89.99
2018-05-25T22:39:56.307Z,90.74
2018-05-25T22:42:42.565Z,90.31
2018-05-25T22:45:30.296Z,89.88
2018-05-25T22:48:17.048Z,90.77
2018-05-25T22:51:03.210Z,90.59
2018-05-25T22:53:37.067Z,90.63
2018-05-25T22:56:05.321Z,90.76
2018-05-25T22:58:33.606Z,91.17
2018-05-25T23:01:02.610Z,89.29
2018-05-25T23:03:31.003Z,90.86
2018-05-25T23:05:59.352Z,90.48
2018-05-25T23:08:27.629Z,91.09
2018-05-25T23:10:55.904Z,91.71
2018-05-25T23:13:24.926Z,91.08
2018-05-25T23:15:53.191Z,90.96
2018-05-25T23:18:21.456Z,90.99
2018-05-25T23:20:51.714Z,90.96
2018-05-25T23:23:19.995Z,90.74
2018-05-25T23:25:48.243Z,90.48
2018-05-25T23:28:17.370Z,90.30
2018-05-25T23:30:45.627Z,90.90
2018-05-25T23:33:14.655Z,91.59
2018-05-25T23:35:42.910Z,91.41
2018-05-25T23:38:12.023Z,92.22
2018-05-25T23:40:40.272Z,91.50
2018-05-25T23:43:09.315Z,91.63
2018-05-25T23:45:37.570Z,92.11
2018-05-25T23:48:05.840Z,92.12
2018-05-25T23:50:34.860Z,92.25
2018-05-25T23:53:03.835Z,92.27
2018-05-25T23:55:32.853Z,91.47
2018-05-25T23:58:01.123Z,91.82
